Albion, Pennsylvania
Current Conditions -  °F | °C
As of 9:51 AM on Monday 24 Nov 2014 (Local Time) from KERI Reporting Station
Overcast Overcast  
Wind Chill: 63°   Ceiling: 6000
Heat Index: 63°   Visibility: 10mi
Dew Point: 51°   Wind: 21mph
Humidity: 65%   Direction: 190°S
Pressure: 29.28"   Gusts: 30mph
Location:  41.89°N, 80.36°W
Report Text: KERI 241451Z 19018G26KT 10SM FEW036 OVC060 17/11 A2928 RMK AO2 PK WND 19034/1357 SLP913 T01720106 58005
Loading
Personal Weather Stations






























Interactive Weather Map New forecast layout! Learn more

10-Day Weather Forecast

Advertisements
Track Severe Weather on mobile